• Join FlightAware (Why Join?)
  • Login
  • US Flag 
07:50AM EDT


 

Airport Tracker/Info


-or-


 

Live Flight TrackerFlight Track Log ✈ N840RC ✈ 23-Sep-2013 ✈ KSPW - KDEH

Flight Track Log - Related Links

Times and Time Zones

All times are in EDT time to prevent confusion due to time zone crossing. See the N840RC flight status page for this flight to view local times or setup timezone preferences in your user account.

Time Position Orientation Groundspeed Altitude Reporting Facility
EDT Latitude Longitude Course Direction KTS MPH feet Rate Location/Type
07:51PM 43.1328 -95.0669 90° East 134 154 5,700  Level Minneapolis Center
07:52PM 43.1378 -95.0008 84° East 162 186 7,000 1,320 Climbing Minneapolis Center
07:53PM 43.1439 -94.9242 84° East 177 204 8,500 1,440 Climbing Minneapolis Center
07:54PM 43.1478 -94.8531 86° East 187 215 10,000 1,500 Climbing Minneapolis Center
07:55PM 43.1511 -94.7639 87° East 192 221 11,600 1,440 Climbing Minneapolis Center
07:56PM 43.1556 -94.6861 85° East 198 228 13,000 720 Climbing Minneapolis Center
07:57PM 43.1896 -94.6652 90° East  Level Estimated
07:57PM 43.1608 -94.6014 85° East 210 242 13,200  Level Minneapolis Center
07:58PM 43.1644 -94.5089 87° East 244 281 13,200  Level Minneapolis Center
07:59PM 43.1694 -94.4136 86° East 252 290 13,200  Level Minneapolis Center
08:01PM 43.1739 -94.2964 87° East 258 297 13,200  Level Minneapolis Center
08:02PM 43.1794 -94.2067 85° East 257 296 13,200 -60 Level Minneapolis Center
08:03PM 43.1847 -94.1086 86° East 261 300 13,100 -60 Descending Minneapolis Center
08:04PM 43.1878 -94.0106 88° East 260 299 13,100  Level Minneapolis Center
08:05PM 43.1942 -93.8936 86° East 259 298 13,100  Level Minneapolis Center
08:06PM 43.1983 -93.7975 87° East 257 296 13,100  Level Minneapolis Center
08:07PM 43.2031 -93.7000 86° East 258 297 13,100  Level Minneapolis Center
08:08PM 43.2072 -93.6028 87° East 258 297 13,100  Level Minneapolis Center
08:09PM 43.2111 -93.5058 87° East 259 298 13,100  Level Minneapolis Center
08:10PM 43.2161 -93.3878 87° East 259 298 13,100  Level Minneapolis Center
08:11PM 43.2206 -93.2897 86° East 260 299 13,100  Level Minneapolis Center
08:12PM 43.2244 -93.1928 87° East 258 297 13,100  Level Minneapolis Center
08:13PM 43.2292 -93.0944 86° East 261 300 13,100  Level Minneapolis Center
08:14PM 43.2325 -92.9961 87° East 261 300 13,100  Level Minneapolis Center
08:15PM 43.2356 -92.8972 88° East 261 300 13,100  Level Minneapolis Center
08:16PM 43.2397 -92.7789 87° East 261 300 13,100  Level Minneapolis Center
08:17PM 43.2436 -92.6817 87° East 259 298 13,100  Level Minneapolis Center
08:18PM 43.2467 -92.5836 88° East 260 299 13,100 -780 Level Minneapolis Center
08:19PM 43.2492 -92.4822 88° East 262 302 11,500 -1,500 Descending Minneapolis Center
08:20PM 43.2547 -92.3778 86° East 269 310 10,100 -1,740 Descending Minneapolis Center
08:21PM 43.2592 -92.2569 87° East 269 310 8,000 -1,860 Descending Minneapolis Center
08:22PM 43.2633 -92.1581 87° East 267 307 6,400 -1,620 Descending Minneapolis Center